• Join FlightAware (Why Join?)
  • Login
  • US Flag 
07:16AM EDT


 

Airport Tracker/Info


-or-


 

Live Flight TrackerFlight Track Log ✈ AMF1964 ✈ 16-May-2012 ✈ KPDX - KHRI

Flight Track Log - Related Links

Times and Time Zones

All times are in EDT time to prevent confusion due to time zone crossing. See the AMF1964 flight status page for this flight to view local times or setup timezone preferences in your user account.

Time Position Orientation Groundspeed Altitude Reporting Facility
EDT Latitude Longitude Course Direction KTS MPH feet Rate Location/Type
09:44AM 45.5906 -122.6142 North 118 136 800  Level Seattle Center
09:45AM 45.6156 -122.6083 48° Northeast 132 152 1,800 1,140 Climbing Seattle Center
09:46AM 45.6442 -122.5628 80° East 152 175 3,000 1,020 Climbing Seattle Center
09:47AM 45.6522 -122.4958 80° East 157 181 4,200 1,020 Climbing Seattle Center
09:48AM 45.6597 -122.4358 84° East 158 182 5,200 960 Climbing Seattle Center
09:49AM 45.6650 -122.3669 80° East 170 196 6,200 960 Climbing Seattle Center
09:50AM 45.6736 -122.2936 83° East 174 200 7,200 840 Climbing Seattle Center
09:51AM 45.6758 -122.2683 80° East 171 197 7,500 840 Climbing Seattle Center
09:52AM 45.6850 -122.1964 82° East 180 207 8,500 900 Climbing Seattle Center
09:53AM 45.6925 -122.1239 84° East 184 212 9,400 480 Climbing Seattle Center
09:54AM 45.6986 -122.0461 80° East 191 220 9,500  Climbing Seattle Center
09:55AM 45.7114 -121.9433 81° East 214 246 9,500  Level Seattle Center
09:56AM 45.7200 -121.8628 80° East 213 245 9,500  Level Seattle Center
09:57AM 45.7306 -121.7789 80° East 215 247 9,500  Level Seattle Center
09:58AM 45.7411 -121.6964 81° East 213 245 9,600  Climbing Seattle Center
09:59AM 45.7508 -121.6125 81° East 213 245 9,600 -60 Level Seattle Center
10:00AM 45.7603 -121.5278 82° East 215 247 9,500 -60 Descending Seattle Center
10:01AM 45.7686 -121.4433 81° East 216 249 9,500  Level Seattle Center
10:02AM 45.7797 -121.3406 84° East 217 250 9,500  Level Seattle Center
10:03AM 45.7861 -121.2553 82° East 217 250 9,500  Level Seattle Center
10:04AM 45.7939 -121.1714 82° East 215 247 9,500  Level Seattle Center
10:05AM 45.8019 -121.0881 83° East 214 246 9,500  Level Seattle Center
10:06AM 45.8089 -121.0025 83° East 215 247 9,500  Level Seattle Center
10:07AM 45.8167 -120.9156 81° East 218 251 9,500  Level Seattle Center
10:08AM 45.8258 -120.8311 82° East 217 250 9,500  Level Seattle Center
10:09AM 45.8339 -120.7458 82° East 217 250 9,500  Level Seattle Center
10:10AM 45.8422 -120.6614 81° East 216 249 9,500  Level Seattle Center
10:11AM 45.8531 -120.5600 82° East 216 249 9,500  Level Seattle Center
10:12AM 45.8614 -120.4769 81° East 214 246 9,500  Level Seattle Center
10:13AM 45.8706 -120.3919 82° East 214 246 9,500 -60 Level Seattle Center
10:14AM 45.8792 -120.3064 85° East 216 249 9,400 -300 Descending Seattle Center
10:15AM 45.8850 -120.2158 84° East 223 257 8,900 -600 Descending Seattle Center
10:16AM 45.8917 -120.1264 82° East 225 259 8,300 -720 Descending Seattle Center
10:17AM 45.9006 -120.0336 83° East 230 265 7,500 -660 Descending Seattle Center
10:18AM 45.9083 -119.9419 83° East 232 267 7,000 -540 Descending Seattle Center
10:19AM 45.9158 -119.8569 83° East 225 259 6,500 -540 Descending Seattle Center